createdAt,value
2022-10-26T00:01:10.001Z,70.14
2022-10-26T00:03:40.210Z,70.15
2022-10-26T00:06:10.742Z,70.05
2022-10-26T00:08:38.152Z,70.20
2022-10-26T00:11:05.882Z,70.12
2022-10-26T00:13:33.535Z,70.16
2022-10-26T00:18:32.619Z,70.15
2022-10-26T00:21:07.822Z,70.27
2022-10-26T00:23:34.846Z,70.08
2022-10-26T00:26:03.250Z,70.01
2022-10-26T00:28:30.470Z,70.00
2022-10-26T00:31:12.351Z,70.01
2022-10-26T00:33:39.331Z,69.86
2022-10-26T00:36:08.778Z,69.90
2022-10-26T00:38:35.911Z,69.87
2022-10-26T00:41:03.240Z,69.80
2022-10-26T00:43:29.934Z,69.75
2022-10-26T00:45:58.683Z,69.71
2022-10-26T00:48:29.525Z,69.68
2022-10-26T00:51:00.373Z,69.70
2022-10-26T00:53:28.628Z,69.72
2022-10-26T00:55:56.144Z,69.63
2022-10-26T00:58:25.523Z,69.50
2022-10-26T01:00:52.732Z,69.55
2022-10-26T01:03:20.403Z,69.57
2022-10-26T01:05:48.996Z,69.45
2022-10-26T01:08:17.658Z,69.42
2022-10-26T01:10:44.947Z,69.61
2022-10-26T01:13:13.831Z,69.50
2022-10-26T01:16:21.287Z,70.02
2022-10-26T01:19:38.620Z,68.44
2022-10-26T01:22:21.852Z,68.41
2022-10-26T01:25:02.520Z,67.62
2022-10-26T01:27:41.044Z,67.43
2022-10-26T01:30:37.308Z,67.01
2022-10-26T01:33:13.329Z,66.99
2022-10-26T01:35:53.442Z,66.69
2022-10-26T01:38:24.207Z,66.69
2022-10-26T01:41:17.810Z,66.36
2022-10-26T01:43:58.110Z,66.49
2022-10-26T01:46:28.609Z,66.38
2022-10-26T01:49:01.160Z,66.19
2022-10-26T01:51:29.618Z,66.27
2022-10-26T01:53:57.754Z,66.07
2022-10-26T01:56:31.670Z,65.80
2022-10-26T01:59:21.974Z,65.86
2022-10-26T02:01:50.369Z,65.90
2022-10-26T02:04:41.352Z,65.75
2022-10-26T02:07:29.973Z,65.82
2022-10-26T02:10:05.776Z,65.89
2022-10-26T02:12:59.265Z,65.90
2022-10-26T02:15:45.687Z,65.88
2022-10-26T02:18:30.486Z,65.69
2022-10-26T02:21:03.569Z,65.70
2022-10-26T02:23:34.304Z,65.60
2022-10-26T02:26:05.004Z,65.46
2022-10-26T02:28:38.508Z,65.33
2022-10-26T02:31:07.094Z,65.42
2022-10-26T02:33:39.417Z,65.45
2022-10-26T02:36:08.462Z,65.50
2022-10-26T02:38:38.841Z,65.88
2022-10-26T02:41:07.132Z,65.81
2022-10-26T02:43:41.467Z,65.65
2022-10-26T02:46:13.178Z,65.63
2022-10-26T02:48:40.442Z,65.58
2022-10-26T02:51:41.763Z,65.35
2022-10-26T02:54:46.724Z,65.04
2022-10-26T02:57:23.059Z,65.28
2022-10-26T02:59:50.583Z,65.35
2022-10-26T03:02:19.739Z,65.26
2022-10-26T03:04:49.676Z,65.38
2022-10-26T03:07:23.814Z,65.46
2022-10-26T03:09:50.939Z,65.54
2022-10-26T03:12:17.774Z,65.72
2022-10-26T03:14:44.935Z,65.71
2022-10-26T03:17:11.756Z,65.69
2022-10-26T03:19:38.706Z,65.70
2022-10-26T03:22:05.498Z,65.59
2022-10-26T03:24:32.403Z,65.69
2022-10-26T03:27:02.043Z,65.75
2022-10-26T03:29:29.425Z,65.71
2022-10-26T03:31:56.309Z,65.62
2022-10-26T03:34:23.141Z,65.44
2022-10-26T03:36:49.855Z,65.36
2022-10-26T03:39:17.034Z,65.49
2022-10-26T03:41:44.148Z,65.61
2022-10-26T03:44:11.102Z,65.66
2022-10-26T03:46:37.931Z,65.53
2022-10-26T03:49:04.838Z,65.54
2022-10-26T03:51:31.618Z,65.67
2022-10-26T03:53:58.351Z,65.85
2022-10-26T03:56:25.434Z,65.46
2022-10-26T03:58:52.380Z,65.51
2022-10-26T04:01:19.278Z,65.42
2022-10-26T04:03:46.348Z,65.44
2022-10-26T04:06:13.363Z,65.40
2022-10-26T04:08:40.122Z,65.56
2022-10-26T04:11:06.891Z,65.43
2022-10-26T04:13:33.794Z,65.33
2022-10-26T04:16:00.676Z,65.42
2022-10-26T04:18:27.504Z,65.61
2022-10-26T04:20:54.276Z,65.60
2022-10-26T04:23:21.585Z,65.67
2022-10-26T04:25:48.462Z,65.44
2022-10-26T04:28:15.281Z,65.47
2022-10-26T04:30:42.185Z,65.64
2022-10-26T04:33:09.552Z,65.49
2022-10-26T04:35:36.344Z,65.70
2022-10-26T04:38:05.663Z,65.54
2022-10-26T04:40:34.123Z,65.64
2022-10-26T04:43:01.241Z,65.50
2022-10-26T04:45:30.131Z,65.57
2022-10-26T04:48:05.113Z,65.71
2022-10-26T04:50:32.512Z,65.59
2022-10-26T04:53:00.059Z,65.59
2022-10-26T04:55:26.897Z,65.67
2022-10-26T04:57:55.971Z,65.92
2022-10-26T05:00:26.091Z,65.93
2022-10-26T05:03:07.843Z,65.98
2022-10-26T05:05:36.693Z,66.02
2022-10-26T05:08:03.816Z,66.22
2022-10-26T05:10:30.766Z,66.19
2022-10-26T05:12:59.563Z,66.29
2022-10-26T05:15:27.813Z,66.45
2022-10-26T05:18:02.855Z,66.46
2022-10-26T05:20:31.854Z,66.53
2022-10-26T05:23:01.155Z,66.59
2022-10-26T05:25:31.091Z,66.68
2022-10-26T05:28:03.542Z,66.89
2022-10-26T05:30:31.468Z,67.09
2022-10-26T05:33:02.464Z,67.16
2022-10-26T05:35:29.710Z,67.14
2022-10-26T05:37:56.710Z,67.03
2022-10-26T05:40:24.054Z,66.86
2022-10-26T05:42:51.840Z,66.77
2022-10-26T05:45:18.956Z,66.62
2022-10-26T05:47:46.013Z,66.52
2022-10-26T05:50:13.642Z,66.38
2022-10-26T05:52:42.533Z,66.36
2022-10-26T05:55:10.945Z,66.43
2022-10-26T05:57:38.262Z,66.47
2022-10-26T06:00:14.602Z,66.40
2022-10-26T06:02:49.271Z,66.53
2022-10-26T06:05:23.285Z,66.45
2022-10-26T06:07:50.740Z,66.45
2022-10-26T06:10:18.486Z,66.54
2022-10-26T06:33:47.063Z,67.65
2022-10-26T06:36:23.321Z,68.19
2022-10-26T06:38:56.901Z,68.46
2022-10-26T06:41:26.393Z,68.62
2022-10-26T06:43:54.805Z,69.07
2022-10-26T06:46:44.990Z,69.09
2022-10-26T06:49:28.460Z,69.09
2022-10-26T06:52:10.269Z,68.95
2022-10-26T06:54:49.666Z,68.77
2022-10-26T06:57:20.414Z,68.44
2022-10-26T06:59:53.195Z,68.18
2022-10-26T07:02:22.030Z,68.01
2022-10-26T07:04:50.425Z,67.70
2022-10-26T07:07:21.313Z,67.71
2022-10-26T07:09:50.407Z,67.60
2022-10-26T07:12:18.923Z,67.37
2022-10-26T07:14:47.111Z,67.20
2022-10-26T07:17:15.325Z,67.35
2022-10-26T07:19:44.942Z,67.55
2022-10-26T07:22:13.319Z,67.63
2022-10-26T07:24:41.434Z,67.61
2022-10-26T07:27:09.623Z,67.59
2022-10-26T07:29:37.995Z,67.78
2022-10-26T07:32:06.400Z,67.92
2022-10-26T07:34:34.673Z,67.84
2022-10-26T07:37:03.476Z,67.73
2022-10-26T07:39:32.957Z,67.72
2022-10-26T07:42:01.272Z,67.82
2022-10-26T07:44:29.532Z,67.69
2022-10-26T07:46:58.408Z,67.50
2022-10-26T07:49:27.923Z,67.43
2022-10-26T07:51:56.394Z,67.42
2022-10-26T07:54:24.794Z,67.29
2022-10-26T07:56:53.217Z,67.19
2022-10-26T07:59:21.381Z,67.07
2022-10-26T08:01:49.711Z,66.93
2022-10-26T08:04:18.042Z,66.77
2022-10-26T08:06:47.439Z,66.81
2022-10-26T08:09:15.689Z,66.80
2022-10-26T08:11:43.996Z,66.84
2022-10-26T08:14:12.894Z,66.63
2022-10-26T08:16:41.166Z,66.64
2022-10-26T08:19:09.824Z,66.64
2022-10-26T08:21:40.918Z,66.61
2022-10-26T08:24:09.319Z,66.04
2022-10-26T08:26:37.758Z,65.47
2022-10-26T08:29:05.922Z,64.79
2022-10-26T08:31:34.193Z,64.13
2022-10-26T08:34:04.164Z,64.02
2022-10-26T08:36:32.461Z,64.05
2022-10-26T08:39:04.086Z,64.11
2022-10-26T08:41:47.833Z,63.81
2022-10-26T08:44:26.166Z,63.39
2022-10-26T08:47:11.353Z,63.59
2022-10-26T08:49:47.385Z,63.67
2022-10-26T08:52:22.799Z,63.24
2022-10-26T08:54:54.643Z,63.31
2022-10-26T08:57:38.759Z,62.92
2022-10-26T09:00:17.579Z,62.81
2022-10-26T09:02:49.990Z,62.45
2022-10-26T09:05:23.700Z,62.04
2022-10-26T09:08:07.059Z,61.99
2022-10-26T09:10:41.467Z,61.26
2022-10-26T09:13:42.860Z,60.56
2022-10-26T09:16:23.507Z,60.91
2022-10-26T09:19:35.570Z,60.45
2022-10-26T09:22:31.861Z,60.05
2022-10-26T09:25:12.772Z,59.93
2022-10-26T09:27:47.823Z,60.18
2022-10-26T09:30:20.579Z,60.80
2022-10-26T09:32:52.763Z,58.10
2022-10-26T09:35:31.616Z,56.98
2022-10-26T09:38:09.970Z,57.54
2022-10-26T09:40:47.641Z,58.40
2022-10-26T09:43:30.647Z,58.90
2022-10-26T09:45:58.987Z,59.34
2022-10-26T09:48:41.584Z,59.94
2022-10-26T09:51:11.321Z,60.34
2022-10-26T09:53:39.613Z,60.46
2022-10-26T09:56:11.877Z,60.49
2022-10-26T09:59:05.368Z,59.59
2022-10-26T10:01:38.494Z,59.45
2022-10-26T10:04:13.632Z,60.48
2022-10-26T10:06:43.379Z,60.13
2022-10-26T10:09:15.960Z,59.26
2022-10-26T10:11:58.004Z,59.29
2022-10-26T10:14:39.664Z,58.94
2022-10-26T10:17:23.272Z,58.35
2022-10-26T10:19:52.739Z,58.17
2022-10-26T10:22:25.578Z,58.00
2022-10-26T10:25:00.113Z,57.99
2022-10-26T10:27:30.314Z,57.22
2022-10-26T10:30:07.206Z,56.65
2022-10-26T10:32:38.958Z,56.04
2022-10-26T10:35:24.653Z,56.66
2022-10-26T10:37:53.195Z,56.14
2022-10-26T10:40:24.708Z,55.38
2022-10-26T10:43:03.269Z,54.75
2022-10-26T10:45:32.761Z,53.85
2022-10-26T10:48:13.340Z,53.87
2022-10-26T10:51:01.137Z,54.18
2022-10-26T10:53:44.694Z,54.88
2022-10-26T10:56:28.383Z,55.05
2022-10-26T10:59:19.241Z,55.13
2022-10-26T11:02:29.489Z,55.65
2022-10-26T11:05:13.337Z,55.91
2022-10-26T11:07:52.925Z,56.53
2022-10-26T11:10:26.879Z,57.24
2022-10-26T11:12:59.873Z,57.78
2022-10-26T11:15:32.870Z,57.88
2022-10-26T11:18:13.870Z,58.34
2022-10-26T11:21:38.177Z,58.65
2022-10-26T11:24:22.637Z,58.90
2022-10-26T11:26:54.341Z,59.21
2022-10-26T11:29:48.643Z,59.57
2022-10-26T11:32:22.869Z,59.52
2022-10-26T11:35:00.736Z,59.22
2022-10-26T11:37:51.450Z,58.90
2022-10-26T11:40:44.844Z,58.93
2022-10-26T11:43:31.312Z,58.77
2022-10-26T11:46:24.418Z,58.06
2022-10-26T11:49:07.300Z,58.12
2022-10-26T11:51:41.696Z,58.24
2022-10-26T11:54:26.142Z,58.40
2022-10-26T11:56:57.116Z,58.42
2022-10-26T11:59:37.968Z,58.64
2022-10-26T12:02:15.498Z,58.56
2022-10-26T12:04:47.729Z,57.08
2022-10-26T12:07:26.683Z,56.46
2022-10-26T12:09:57.826Z,56.95
2022-10-26T12:12:37.449Z,57.62
2022-10-26T12:15:35.546Z,58.27
2022-10-26T12:18:43.202Z,58.81
2022-10-26T12:21:15.703Z,59.37
2022-10-26T12:23:59.514Z,60.10
2022-10-26T12:26:27.704Z,60.52
2022-10-26T12:29:02.545Z,61.11
2022-10-26T12:31:37.043Z,61.42
2022-10-26T12:34:12.371Z,61.75
2022-10-26T12:36:56.628Z,65.51
2022-10-26T12:39:35.757Z,66.71
2022-10-26T12:42:10.012Z,56.36
2022-10-26T12:44:41.468Z,51.73
2022-10-26T12:47:30.522Z,51.23
2022-10-26T12:50:05.765Z,50.01
2022-10-26T12:52:45.602Z,47.27
2022-10-26T12:55:20.349Z,45.29
2022-10-26T12:58:07.684Z,43.50
2022-10-26T13:00:42.732Z,41.74
2022-10-26T13:03:39.623Z,40.86
2022-10-26T13:06:17.442Z,38.28
2022-10-26T13:08:49.303Z,38.37
2022-10-26T13:11:23.316Z,35.32
2022-10-26T13:13:57.419Z,32.38
2022-10-26T13:16:28.335Z,30.56
2022-10-26T13:18:57.436Z,28.26
2022-10-26T13:21:26.841Z,26.85
2022-10-26T13:23:55.863Z,25.31
2022-10-26T13:26:26.569Z,23.26
2022-10-26T13:28:57.439Z,20.88
2022-10-26T13:31:28.771Z,20.29
2022-10-26T13:34:01.668Z,21.28
2022-10-26T13:36:45.671Z,20.85
2022-10-26T13:39:20.725Z,21.90
2022-10-26T13:41:52.583Z,22.13
2022-10-26T13:44:27.826Z,22.89
2022-10-26T13:47:02.477Z,25.45
2022-10-26T13:49:39.402Z,26.42
2022-10-26T13:52:19.124Z,27.98
2022-10-26T13:54:59.256Z,29.95
2022-10-26T13:57:43.867Z,31.89
2022-10-26T14:00:23.829Z,33.76
2022-10-26T14:02:52.357Z,35.46
2022-10-26T14:05:22.223Z,37.30
2022-10-26T14:07:56.858Z,38.46
2022-10-26T14:10:38.918Z,40.20
2022-10-26T14:13:08.920Z,42.53
2022-10-26T14:15:37.248Z,42.94
2022-10-26T14:18:05.485Z,43.94
2022-10-26T14:20:33.909Z,45.21
2022-10-26T14:23:02.107Z,46.27
2022-10-26T14:25:42.400Z,47.55
2022-10-26T14:28:28.910Z,49.83
2022-10-26T14:31:25.464Z,50.13
2022-10-26T14:33:54.925Z,51.05
2022-10-26T14:36:34.311Z,52.13
2022-10-26T14:39:07.932Z,53.76
2022-10-26T14:41:36.584Z,54.62
2022-10-26T14:44:04.971Z,54.81
2022-10-26T14:46:35.848Z,55.54
2022-10-26T14:49:04.915Z,56.01
2022-10-26T14:51:36.437Z,56.75
2022-10-26T14:54:05.043Z,57.86
2022-10-26T14:56:36.548Z,58.19
2022-10-26T14:59:24.571Z,58.90
2022-10-26T15:02:02.437Z,58.76
2022-10-26T15:04:36.660Z,59.75
2022-10-26T15:07:18.811Z,59.88
2022-10-26T15:09:49.366Z,63.45
2022-10-26T15:12:23.611Z,65.47
2022-10-26T15:14:52.588Z,63.61
2022-10-26T15:17:24.645Z,59.20
2022-10-26T15:19:53.954Z,55.93
2022-10-26T15:22:31.147Z,55.61
2022-10-26T15:25:04.745Z,56.16
2022-10-26T15:27:33.156Z,57.32
2022-10-26T15:30:37.242Z,57.86
2022-10-26T15:33:22.234Z,57.88
2022-10-26T15:35:50.706Z,58.99
2022-10-26T15:38:19.032Z,59.86
2022-10-26T15:40:47.085Z,60.48
2022-10-26T15:43:15.451Z,63.49
2022-10-26T15:45:52.171Z,66.43
2022-10-26T15:48:29.315Z,64.95
2022-10-26T15:50:58.394Z,60.37
2022-10-26T15:53:27.674Z,57.12
2022-10-26T15:55:58.916Z,56.93
2022-10-26T15:58:29.833Z,57.51
2022-10-26T16:00:57.933Z,58.46
2022-10-26T16:03:27.390Z,59.34
2022-10-26T16:05:58.790Z,60.04
2022-10-26T16:08:30.120Z,63.11
2022-10-26T16:10:58.826Z,66.19
2022-10-26T16:13:26.945Z,63.75
2022-10-26T16:15:55.312Z,60.13
2022-10-26T16:18:23.662Z,57.71
2022-10-26T16:20:51.777Z,57.75
2022-10-26T16:23:19.899Z,58.53
2022-10-26T16:25:48.051Z,59.53
2022-10-26T16:28:17.351Z,62.72
2022-10-26T16:30:45.842Z,65.22
2022-10-26T16:33:14.252Z,63.55
2022-10-26T16:35:42.356Z,60.37
2022-10-26T16:38:10.597Z,57.88
2022-10-26T16:40:42.746Z,57.97
2022-10-26T16:43:11.136Z,58.71
2022-10-26T16:45:41.848Z,59.78
2022-10-26T16:48:15.359Z,62.93
2022-10-26T16:50:43.610Z,65.30
2022-10-26T16:53:12.000Z,64.26
2022-10-26T16:55:40.344Z,62.06
2022-10-26T16:58:08.584Z,59.07
2022-10-26T17:00:37.832Z,57.64
2022-10-26T17:03:06.024Z,58.13
2022-10-26T17:05:34.381Z,59.22
2022-10-26T17:08:02.600Z,60.09
2022-10-26T17:10:30.716Z,62.29
2022-10-26T17:12:58.990Z,65.41
2022-10-26T17:15:29.020Z,65.94
2022-10-26T17:17:57.467Z,64.47
2022-10-26T17:20:25.900Z,62.36
2022-10-26T17:22:55.380Z,59.12
2022-10-26T17:25:23.581Z,56.90
2022-10-26T17:27:51.753Z,57.39
2022-10-26T17:30:19.911Z,58.53
2022-10-26T17:32:48.461Z,59.78
2022-10-26T17:35:17.035Z,63.23
2022-10-26T17:37:45.430Z,64.56
2022-10-26T17:40:13.953Z,63.90
2022-10-26T17:42:42.127Z,61.73
2022-10-26T17:45:10.677Z,59.06
2022-10-26T17:47:38.952Z,57.57
2022-10-26T17:50:08.135Z,57.97
2022-10-26T17:52:36.360Z,58.88
2022-10-26T17:55:05.072Z,59.91
2022-10-26T17:57:34.157Z,63.01
2022-10-26T18:00:03.924Z,65.53
2022-10-26T18:02:40.906Z,63.88
2022-10-26T18:05:09.634Z,61.55
2022-10-26T18:07:37.869Z,59.84
2022-10-26T18:10:13.822Z,58.14
2022-10-26T18:12:54.768Z,58.16
2022-10-26T18:15:24.029Z,59.58
2022-10-26T18:17:55.548Z,62.66
2022-10-26T18:20:28.330Z,65.15
2022-10-26T18:22:57.136Z,64.19
2022-10-26T18:25:26.209Z,62.54
2022-10-26T18:27:55.913Z,61.49
2022-10-26T18:30:24.834Z,59.33
2022-10-26T18:32:53.788Z,57.73
2022-10-26T18:35:23.615Z,58.32
2022-10-26T18:37:52.088Z,59.67
2022-10-26T18:40:20.501Z,62.85
2022-10-26T18:42:49.080Z,65.99
2022-10-26T18:45:17.537Z,64.87
2022-10-26T18:47:45.678Z,62.81
2022-10-26T18:50:13.953Z,59.46
2022-10-26T18:52:42.179Z,57.79
2022-10-26T18:55:10.334Z,58.31
2022-10-26T18:57:39.946Z,59.09
2022-10-26T19:00:08.884Z,63.25
2022-10-26T19:02:37.234Z,65.54
2022-10-26T19:05:06.412Z,64.06
2022-10-26T19:07:34.526Z,61.92
2022-10-26T19:10:02.968Z,58.52
2022-10-26T19:12:31.680Z,56.80
2022-10-26T19:14:59.787Z,57.48
2022-10-26T19:17:28.178Z,58.77
2022-10-26T19:19:57.100Z,60.04
2022-10-26T19:22:25.190Z,64.17
2022-10-26T19:24:53.453Z,66.26
2022-10-26T19:27:22.136Z,64.08
2022-10-26T19:29:50.216Z,62.30
2022-10-26T19:32:18.383Z,59.21
2022-10-26T19:34:47.125Z,57.54
2022-10-26T19:37:15.384Z,58.02
2022-10-26T19:39:43.574Z,59.22
2022-10-26T19:42:11.876Z,63.22
2022-10-26T19:44:39.986Z,64.98
2022-10-26T19:47:08.241Z,63.90
2022-10-26T19:49:36.451Z,62.08
2022-10-26T19:52:04.900Z,59.55
2022-10-26T19:54:33.353Z,58.28
2022-10-26T19:57:01.850Z,58.99
2022-10-26T19:59:30.024Z,60.17
2022-10-26T20:02:00.381Z,64.49
2022-10-26T20:04:28.681Z,66.17
2022-10-26T20:06:56.844Z,64.92
2022-10-26T20:09:25.158Z,63.46
2022-10-26T20:11:53.552Z,61.67
2022-10-26T20:14:21.714Z,61.83
2022-10-26T20:16:49.857Z,59.14
2022-10-26T20:19:18.498Z,58.14
2022-10-26T20:21:46.848Z,59.30
2022-10-26T20:24:14.990Z,60.12
2022-10-26T20:26:43.169Z,63.83
2022-10-26T20:29:11.594Z,66.08
2022-10-26T20:31:39.830Z,64.83
2022-10-26T20:34:08.069Z,62.95
2022-10-26T20:36:36.268Z,62.03
2022-10-26T20:39:05.143Z,61.15
2022-10-26T20:41:33.725Z,59.28
2022-10-26T20:44:02.366Z,58.18
2022-10-26T20:46:30.947Z,59.28
2022-10-26T20:48:59.568Z,62.36
2022-10-26T20:52:02.732Z,64.26
2022-10-26T20:54:59.492Z,63.57
2022-10-26T20:57:30.932Z,63.26
2022-10-26T21:00:09.254Z,62.46
2022-10-26T21:02:37.989Z,62.18
2022-10-26T21:05:06.628Z,62.57
2022-10-26T21:07:34.783Z,62.65
2022-10-26T21:10:02.902Z,62.05
2022-10-26T21:12:31.120Z,62.12
2022-10-26T21:14:59.263Z,62.58
2022-10-26T21:17:27.635Z,62.50
2022-10-26T21:19:56.131Z,62.53
2022-10-26T21:22:24.424Z,63.15
2022-10-26T21:24:52.524Z,63.62
2022-10-26T21:27:20.634Z,65.18
2022-10-26T21:29:48.757Z,63.50
2022-10-26T21:32:16.905Z,62.46
2022-10-26T21:34:45.160Z,61.12
2022-10-26T21:37:13.421Z,58.66
2022-10-26T21:39:41.558Z,57.93
2022-10-26T21:42:09.713Z,58.68
2022-10-26T21:44:41.752Z,62.99
2022-10-26T21:47:11.442Z,65.76
2022-10-26T21:52:13.034Z,62.57
2022-10-26T21:54:41.488Z,61.28
2022-10-26T21:57:09.670Z,58.74
2022-10-26T21:59:37.774Z,58.04
2022-10-26T22:02:05.997Z,60.22
2022-10-26T22:04:34.390Z,64.00
2022-10-26T22:07:02.522Z,66.04
2022-10-26T22:09:30.823Z,64.57
2022-10-26T22:11:59.043Z,62.55
2022-10-26T22:14:27.129Z,61.18
2022-10-26T22:16:55.386Z,60.93
2022-10-26T22:19:23.549Z,58.65
2022-10-26T22:21:51.732Z,57.87
2022-10-26T22:24:20.047Z,59.42
2022-10-26T22:26:51.216Z,64.54
2022-10-26T22:29:19.450Z,66.17
2022-10-26T22:31:47.698Z,64.58
2022-10-26T22:34:16.685Z,63.24
2022-10-26T22:36:45.093Z,61.47
2022-10-26T22:39:13.823Z,61.36
2022-10-26T22:41:42.054Z,60.93
2022-10-26T22:44:10.476Z,59.10
2022-10-26T22:46:38.695Z,57.69
2022-10-26T22:49:06.810Z,59.25
2022-10-26T22:51:35.424Z,62.99
2022-10-26T22:54:05.285Z,65.20
2022-10-26T22:56:36.018Z,63.37
2022-10-26T22:59:05.945Z,62.16
2022-10-26T23:01:37.900Z,60.86
2022-10-26T23:04:06.088Z,60.68
2022-10-26T23:06:34.459Z,60.18
2022-10-26T23:09:02.794Z,58.26
2022-10-26T23:11:31.102Z,57.39
2022-10-26T23:14:01.006Z,58.64
2022-10-26T23:16:30.401Z,63.19
2022-10-26T23:18:59.914Z,65.15
2022-10-26T23:21:29.389Z,63.23
2022-10-26T23:23:58.209Z,62.82
2022-10-26T23:26:26.879Z,61.78
2022-10-26T23:28:55.102Z,60.91
2022-10-26T23:31:26.337Z,58.54
2022-10-26T23:33:56.405Z,57.39
2022-10-26T23:36:25.162Z,58.44
2022-10-26T23:38:53.459Z,62.98
2022-10-26T23:41:21.603Z,65.17
2022-10-26T23:43:49.988Z,63.58
2022-10-26T23:46:18.163Z,62.27
2022-10-26T23:48:46.343Z,61.35
2022-10-26T23:51:14.528Z,59.20
2022-10-26T23:53:42.799Z,58.24
2022-10-26T23:56:11.047Z,59.21
2022-10-26T23:58:39.401Z,63.31
